Time;durP1;ratioP1;P1;durP2;ratioP2;P2;SDS_P1;SDS_P2;PMS_P1;PMS_P2;Temp;Humidity;BMP_temperature;BMP_pressure;BME280_temperature;BME280_humidity;BME280_pressure;Samples;Min_cycle;Max_cycle;Signal;HPM_P1;HPM_P2
2023/06/26 00:01:23;;;;;;;7.90;5.40;;;;;;;17.84;69.51;99154.27;107855;1308;22249;-47
2023/06/26 00:03:48;;;;;;;7.90;5.20;;;;;;;17.84;68.59;99151.09;107846;1308;22947;-44
2023/06/26 00:06:14;;;;;;;6.50;5.10;;;;;;;17.81;68.42;99150.79;107841;1301;22238;-54
2023/06/26 00:08:40;;;;;;;6.50;5.00;;;;;;;17.79;68.34;99147.81;107843;1308;22258;-48
2023/06/26 00:11:05;;;;;;;7.70;5.10;;;;;;;17.76;68.05;99146.08;107828;1308;22836;-51
2023/06/26 00:13:30;;;;;;;9.40;5.30;;;;;;;17.74;68.47;99147.94;107848;1308;22426;-51
2023/06/26 00:15:56;;;;;;;9.20;5.30;;;;;;;17.70;68.76;99149.31;107836;1308;22415;-50
2023/06/26 00:18:23;;;;;;;10.40;5.30;;;;;;;17.69;68.86;99145.11;107863;1308;22470;-48
2023/06/26 00:20:48;;;;;;;9.20;5.60;;;;;;;17.70;68.36;99146.51;107843;1308;22407;-47
2023/06/26 00:23:16;;;;;;;7.10;5.00;;;;;;;17.69;68.81;99142.70;107855;1308;22559;-44
2023/06/26 00:25:42;;;;;;;8.90;5.70;;;;;;;17.68;69.24;99145.58;107864;1308;22931;-48
2023/06/26 00:28:08;;;;;;;7.60;5.30;;;;;;;17.67;69.76;99143.20;107847;1308;22715;-43
2023/06/26 00:30:33;;;;;;;8.10;5.80;;;;;;;17.66;69.62;99140.92;107861;1308;22265;-45
2023/06/26 00:32:58;;;;;;;6.90;5.30;;;;;;;17.68;69.19;99144.91;107862;1308;22931;-54
2023/06/26 00:35:24;;;;;;;9.50;6.20;;;;;;;17.67;69.57;99141.75;107845;1308;22406;-45
2023/06/26 00:37:49;;;;;;;11.10;5.80;;;;;;;17.65;69.50;99140.81;107846;1308;23159;-48
2023/06/26 00:40:14;;;;;;;8.50;5.70;;;;;;;17.66;70.93;99140.95;107849;1308;22248;-41
2023/06/26 00:42:40;;;;;;;9.80;6.30;;;;;;;17.67;70.96;99139.48;107837;1308;22225;-47
2023/06/26 00:45:06;;;;;;;23.50;5.80;;;;;;;17.69;71.32;99137.75;107840;1308;22321;-46
2023/06/26 00:47:31;;;;;;;9.90;6.40;;;;;;;17.69;71.21;99136.82;107867;1308;23166;-47
2023/06/26 00:49:57;;;;;;;7.60;5.80;;;;;;;17.70;71.22;99134.11;107848;1308;22506;-45
2023/06/26 00:52:23;;;;;;;8.30;5.60;;;;;;;17.69;70.83;99132.06;107839;1308;22247;-46
2023/06/26 00:54:51;;;;;;;9.10;5.80;;;;;;;17.68;71.30;99130.39;107854;1308;22259;-49
2023/06/26 00:57:16;;;;;;;8.40;6.40;;;;;;;17.66;71.22;99129.80;107831;1308;22235;-46
2023/06/26 00:59:42;;;;;;;8.10;6.40;;;;;;;17.65;71.46;99127.89;107860;1308;22212;-48
2023/06/26 01:02:07;;;;;;;8.60;6.00;;;;;;;17.62;70.82;99123.71;107843;1308;22235;-53
2023/06/26 01:04:33;;;;;;;8.90;6.40;;;;;;;17.57;71.23;99123.96;107832;1308;22433;-51
2023/06/26 01:07:01;;;;;;;7.90;6.00;;;;;;;17.54;71.79;99124.98;107819;1308;22993;-47
2023/06/26 01:09:27;;;;;;;14.10;6.10;;;;;;;17.53;71.40;99122.45;107840;1308;22449;-51
2023/06/26 01:11:52;;;;;;;8.60;6.10;;;;;;;17.48;71.62;99119.61;107817;1308;22295;-49
2023/06/26 01:14:18;;;;;;;8.20;6.00;;;;;;;17.46;71.57;99119.25;107826;1308;22429;-49
2023/06/26 01:16:47;;;;;;;7.10;5.90;;;;;;;17.43;72.25;99116.92;107833;1308;22432;-49
2023/06/26 01:19:25;;;;;;;12.10;6.40;;;;;;;17.39;72.36;99116.02;107863;1308;23379;-49
2023/06/26 01:21:58;;;;;;;9.50;6.20;;;;;;;17.35;71.73;99110.52;107855;1308;22166;-46
2023/06/26 01:24:27;;;;;;;8.50;6.10;;;;;;;17.34;71.38;99109.47;107824;1308;22218;-50
2023/06/26 01:26:53;;;;;;;8.60;6.50;;;;;;;17.31;72.19;99108.73;107842;1308;22242;-51
2023/06/26 01:29:23;;;;;;;9.80;6.30;;;;;;;17.28;72.38;99110.22;107845;1308;23197;-43
2023/06/26 01:31:49;;;;;;;11.00;6.60;;;;;;;17.25;72.38;99109.16;107849;1308;22436;-46
2023/06/26 01:34:17;;;;;;;7.70;6.00;;;;;;;17.23;72.85;99104.77;107850;1308;22245;-44
2023/06/26 01:36:42;;;;;;;7.10;6.10;;;;;;;17.20;72.99;99099.88;107842;1308;22470;-45
2023/06/26 01:39:08;;;;;;;8.90;6.60;;;;;;;17.23;72.86;99098.63;107796;1308;22238;-51
2023/06/26 01:41:34;;;;;;;10.90;6.30;;;;;;;17.20;73.36;99100.08;107822;1308;22245;-48
2023/06/26 01:44:14;;;;;;;9.30;6.20;;;;;;;17.16;73.37;99096.70;107848;1308;22307;-42
2023/06/26 01:46:49;;;;;;;7.80;5.90;;;;;;;17.13;73.84;99093.42;107837;1308;23150;-51
2023/06/26 01:49:25;;;;;;;10.60;5.90;;;;;;;17.13;73.79;99090.74;107850;1308;22119;-53
2023/06/26 01:52:16;;;;;;;9.80;6.20;;;;;;;17.14;73.74;99088.19;107855;1308;22386;-46
2023/06/26 01:54:52;;;;;;;9.40;5.70;;;;;;;17.13;73.89;99088.66;107834;1308;22413;-46
2023/06/26 01:57:18;;;;;;;8.70;5.60;;;;;;;17.13;74.51;99090.29;107814;1308;22305;-46
2023/06/26 01:59:47;;;;;;;8.00;6.40;;;;;;;17.11;74.73;99086.84;107840;1308;22376;-52
2023/06/26 02:02:12;;;;;;;10.40;6.30;;;;;;;17.10;74.92;99092.95;107869;1308;22215;-50
2023/06/26 02:04:37;;;;;;;9.20;6.30;;;;;;;17.11;74.47;99086.56;107845;1308;22356;-43
2023/06/26 02:07:03;;;;;;;10.90;6.80;;;;;;;17.09;75.24;99091.27;107847;1308;22313;-43
2023/06/26 02:09:28;;;;;;;8.30;5.90;;;;;;;17.09;75.49;99087.91;107847;1308;22185;-49
2023/06/26 02:11:54;;;;;;;9.50;6.30;;;;;;;17.11;75.37;99087.56;107867;1308;22411;-46
2023/06/26 02:14:19;;;;;;;7.30;6.00;;;;;;;17.12;75.15;99085.91;107840;1288;22241;-45
2023/06/26 02:16:44;;;;;;;9.60;6.70;;;;;;;17.11;76.00;99085.45;107834;1308;22454;-46
2023/06/26 02:19:09;;;;;;;9.30;6.30;;;;;;;17.11;76.69;99087.95;107842;1308;22225;-53
2023/06/26 02:21:35;;;;;;;7.60;5.70;;;;;;;17.11;77.09;99081.95;107823;1308;23049;-45
2023/06/26 02:24:01;;;;;;;10.40;6.40;;;;;;;17.12;76.79;99080.92;107821;1308;23215;-48
2023/06/26 02:26:26;;;;;;;10.40;7.10;;;;;;;17.13;76.98;99078.59;107841;1308;22985;-50
2023/06/26 02:28:51;;;;;;;9.10;6.40;;;;;;;17.12;76.20;99073.64;107845;1308;22231;-43
2023/06/26 02:31:17;;;;;;;13.10;6.60;;;;;;;17.11;76.34;99073.75;107840;1308;22213;-47
2023/06/26 02:33:42;;;;;;;9.10;6.70;;;;;;;17.10;76.55;99074.38;107699;1308;22383;-49
2023/06/26 02:36:07;;;;;;;12.20;7.00;;;;;;;17.09;77.25;99072.14;107828;1308;24183;-51
2023/06/26 02:38:33;;;;;;;11.70;7.20;;;;;;;17.09;77.62;99076.56;107845;1308;22238;-47
2023/06/26 02:40:58;;;;;;;10.90;7.20;;;;;;;17.08;77.44;99075.05;107893;1308;22300;-47
2023/06/26 02:43:23;;;;;;;10.00;7.50;;;;;;;17.07;77.47;99082.73;107799;1308;22248;-45
2023/06/26 02:45:48;;;;;;;12.40;7.30;;;;;;;17.06;77.08;99084.10;107852;1308;23264;-54
2023/06/26 02:48:14;;;;;;;11.60;7.60;;;;;;;17.04;77.00;99084.06;107685;1308;22343;-44
2023/06/26 02:50:39;;;;;;;11.60;6.80;;;;;;;17.01;77.69;99084.17;107860;1308;23192;-47
2023/06/26 02:53:04;;;;;;;12.60;7.00;;;;;;;16.99;77.25;99087.50;107826;1308;22390;-51
2023/06/26 02:55:30;;;;;;;10.30;7.40;;;;;;;16.97;77.74;99093.74;107839;1308;22228;-44
2023/06/26 02:57:55;;;;;;;10.80;6.80;;;;;;;16.96;77.18;99092.05;107803;1308;22408;-54
2023/06/26 03:02:05;;;;;;;18.00;7.10;;;;;;;16.94;77.57;99095.55;107444;1299;545383;-49
2023/06/26 03:04:31;;;;;;;12.90;6.90;;;;;;;16.89;78.84;99092.98;107790;1308;22219;-42
2023/06/26 03:06:56;;;;;;;11.80;7.70;;;;;;;16.88;77.97;99098.20;107789;1308;22561;-45
2023/06/26 03:09:21;;;;;;;19.70;7.70;;;;;;;16.85;78.73;99095.39;107778;1308;22256;-51
2023/06/26 03:11:47;;;;;;;13.30;8.00;;;;;;;16.84;79.24;99094.61;107788;1308;22846;-47
2023/06/26 03:14:12;;;;;;;16.40;7.70;;;;;;;16.86;78.90;99094.48;107775;1308;22200;-46
2023/06/26 03:16:37;;;;;;;11.50;7.90;;;;;;;16.86;79.56;99092.66;107852;1306;160382;-56
2023/06/26 03:19:03;;;;;;;12.00;8.10;;;;;;;16.87;79.31;99093.15;108006;1307;22237;-46
2023/06/26 03:21:28;;;;;;;15.60;8.10;;;;;;;16.86;78.78;99092.48;107996;1306;22469;-53
2023/06/26 03:23:53;;;;;;;14.00;7.50;;;;;;;16.89;78.91;99092.08;108023;1306;23004;-46
2023/06/26 03:26:19;;;;;;;15.40;7.90;;;;;;;16.92;79.02;99093.95;108024;1306;22430;-48
2023/06/26 03:28:44;;;;;;;13.20;8.20;;;;;;;16.94;79.46;99094.56;108018;1306;22287;-45
2023/06/26 03:31:10;;;;;;;11.40;8.10;;;;;;;16.98;79.19;99089.42;108012;1306;22232;-41
2023/06/26 03:33:35;;;;;;;13.60;8.30;;;;;;;16.99;79.91;99089.29;108019;1306;23024;-45
2023/06/26 03:36:00;;;;;;;12.70;7.90;;;;;;;17.03;79.09;99087.04;108005;1306;22487;-46
2023/06/26 03:38:26;;;;;;;15.40;7.90;;;;;;;17.04;79.40;99085.29;107997;1306;22252;-52
2023/06/26 03:40:51;;;;;;;11.50;7.70;;;;;;;17.07;79.32;99083.48;108014;1306;22189;-54
2023/06/26 03:43:17;;;;;;;15.90;8.50;;;;;;;17.12;79.14;99086.23;108035;1306;22839;-48
2023/06/26 03:45:42;;;;;;;16.10;8.30;;;;;;;17.15;78.19;99084.78;108032;1306;23125;-49
2023/06/26 03:48:08;;;;;;;14.80;8.70;;;;;;;17.18;76.97;99088.39;108029;1306;22397;-39
2023/06/26 03:50:33;;;;;;;13.90;8.90;;;;;;;17.23;77.11;99090.94;107167;1306;22425;-47
2023/06/26 03:52:59;;;;;;;14.20;8.50;;;;;;;17.28;77.40;99091.28;108005;1306;22665;-42
2023/06/26 03:55:24;;;;;;;10.70;7.80;;;;;;;17.31;77.25;99086.09;108024;1306;22275;-51
2023/06/26 03:57:49;;;;;;;14.70;8.50;;;;;;;17.34;77.46;99085.95;108031;1306;22257;-48
2023/06/26 04:00:15;;;;;;;11.40;8.20;;;;;;;17.39;76.74;99082.69;108009;1288;22579;-55
2023/06/26 04:02:40;;;;;;;13.00;8.40;;;;;;;17.42;76.73;99082.95;108043;1306;22305;-44
2023/06/26 04:05:06;;;;;;;12.00;8.20;;;;;;;17.44;76.51;99081.91;108019;1306;23234;-51
2023/06/26 04:07:31;;;;;;;13.30;7.90;;;;;;;17.46;76.21;99081.52;108014;1306;22957;-49
2023/06/26 04:09:59;;;;;;;14.30;8.50;;;;;;;17.50;76.16;99075.33;107987;1306;24987;-44
2023/06/26 04:12:24;;;;;;;14.90;8.90;;;;;;;17.54;76.15;99073.98;108014;1306;22772;-48
2023/06/26 04:14:50;;;;;;;15.70;8.30;;;;;;;17.56;75.37;99074.98;108003;1306;22982;-48
2023/06/26 04:17:15;;;;;;;12.40;8.50;;;;;;;17.59;75.05;99072.95;108014;1306;22973;-46
2023/06/26 04:19:40;;;;;;;12.40;7.90;;;;;;;17.63;74.49;99077.77;108003;1306;22426;-50
2023/06/26 04:22:06;;;;;;;14.10;8.80;;;;;;;17.67;74.55;99077.62;107993;1306;22298;-43
2023/06/26 04:24:31;;;;;;;12.60;9.00;;;;;;;17.71;74.10;99080.79;108028;1306;22431;-52
2023/06/26 04:26:56;;;;;;;15.00;8.90;;;;;;;17.72;74.45;99077.35;108014;1306;22317;-50
2023/06/26 04:29:25;;;;;;;17.60;9.80;;;;;;;17.72;74.76;99075.39;108024;1306;22299;-49
2023/06/26 04:31:51;;;;;;;12.80;8.60;;;;;;;17.70;74.64;99075.95;107998;1307;22237;-43
2023/06/26 04:34:16;;;;;;;11.90;8.70;;;;;;;17.69;74.81;99074.23;108012;1306;22215;-46
2023/06/26 04:36:46;;;;;;;23.00;9.60;;;;;;;17.70;75.11;99074.83;108023;1306;22925;-54
2023/06/26 04:39:11;;;;;;;17.30;9.40;;;;;;;17.70;75.39;99078.44;108022;1289;22255;-51
2023/06/26 04:41:37;;;;;;;12.10;9.40;;;;;;;17.69;75.05;99078.29;108016;1306;22458;-49
2023/06/26 04:44:02;;;;;;;11.00;8.70;;;;;;;17.71;74.99;99076.92;108011;1306;22304;-45
2023/06/26 04:46:28;;;;;;;16.10;8.90;;;;;;;17.73;75.68;99080.98;108003;1306;22942;-46
2023/06/26 04:48:54;;;;;;;18.50;9.00;;;;;;;17.75;75.37;99081.98;108025;1306;22439;-52
2023/06/26 04:51:20;;;;;;;15.40;9.30;;;;;;;17.77;75.02;99079.89;107999;1288;22243;-42
2023/06/26 04:53:45;;;;;;;11.90;8.50;;;;;;;17.83;74.76;99079.73;108042;1306;22640;-49
2023/06/26 04:56:11;;;;;;;16.10;8.80;;;;;;;17.90;74.63;99085.30;108012;1306;22240;-43
2023/06/26 04:58:36;;;;;;;16.80;9.00;;;;;;;17.98;74.30;99083.55;108007;1306;22225;-45
2023/06/26 05:01:01;;;;;;;14.90;8.70;;;;;;;18.07;73.79;99081.18;107981;1306;22420;-51
2023/06/26 05:03:27;;;;;;;12.50;7.10;;;;;;;18.15;72.84;99080.23;107944;1302;23221;-43
2023/06/26 05:05:53;;;;;;;11.40;7.80;;;;;;;18.24;72.50;99081.57;108032;1306;22312;-54
2023/06/26 05:08:21;;;;;;;18.50;7.90;;;;;;;18.37;72.31;99079.52;108002;1307;22395;-46
2023/06/26 05:10:46;;;;;;;14.30;8.40;;;;;;;18.45;71.39;99078.57;108005;1306;22557;-46
2023/06/26 05:13:15;;;;;;;10.60;7.80;;;;;;;18.57;71.55;99078.41;108008;1307;22322;-45
2023/06/26 05:15:42;;;;;;;13.40;7.40;;;;;;;18.65;71.28;99080.19;108011;1306;22232;-45
2023/06/26 05:18:07;;;;;;;14.10;7.00;;;;;;;18.70;70.40;99077.73;108011;1306;22251;-41
2023/06/26 05:20:34;;;;;;;10.50;7.90;;;;;;;18.77;70.35;99079.02;108014;1306;22167;-54
2023/06/26 05:23:01;;;;;;;9.60;7.40;;;;;;;18.86;70.39;99083.05;108049;1307;22969;-50
2023/06/26 05:25:28;;;;;;;15.70;7.40;;;;;;;18.95;70.27;99084.76;108016;1306;22214;-48
2023/06/26 05:27:54;;;;;;;8.90;6.90;;;;;;;19.00;69.57;99081.39;108008;1306;22267;-49
2023/06/26 05:30:20;;;;;;;14.80;7.40;;;;;;;19.05;69.50;99079.29;108027;1307;22288;-46
2023/06/26 05:32:48;;;;;;;12.00;7.30;;;;;;;19.12;69.00;99082.21;108025;1306;22181;-46
2023/06/26 05:35:13;;;;;;;12.60;6.70;;;;;;;19.19;68.84;99079.81;108008;1306;22954;-50
2023/06/26 05:37:40;;;;;;;11.10;7.20;;;;;;;19.26;68.63;99076.51;108032;1307;22760;-50
2023/06/26 05:40:06;;;;;;;11.70;7.50;;;;;;;19.32;68.58;99078.26;108046;1306;22412;-50
2023/06/26 05:42:33;;;;;;;10.10;7.20;;;;;;;19.35;68.72;99080.02;107999;1306;22242;-43
2023/06/26 05:44:59;;;;;;;18.30;7.50;;;;;;;19.38;68.69;99079.20;108024;1306;22345;-50
2023/06/26 05:47:24;;;;;;;16.70;7.40;;;;;;;19.38;68.65;99078.20;107997;1306;23214;-51
2023/06/26 05:49:49;;;;;;;12.60;7.30;;;;;;;19.40;69.00;99079.95;107992;1306;22241;-48
2023/06/26 05:52:15;;;;;;;25.00;8.00;;;;;;;19.44;68.98;99074.02;108024;1306;22205;-44
2023/06/26 05:54:40;;;;;;;11.00;7.00;;;;;;;19.49;69.30;99073.94;108009;1306;22244;-50
2023/06/26 05:57:06;;;;;;;14.90;7.50;;;;;;;19.51;69.49;99074.41;108007;1307;23112;-45
2023/06/26 05:59:32;;;;;;;16.20;7.40;;;;;;;19.54;69.72;99070.34;108011;1306;22272;-46
2023/06/26 06:01:58;;;;;;;11.70;6.70;;;;;;;19.59;69.47;99065.90;108018;1306;22489;-50
2023/06/26 06:04:23;;;;;;;15.80;6.40;;;;;;;19.63;69.25;99065.34;108008;1307;22264;-53
2023/06/26 06:06:49;;;;;;;7.10;6.00;;;;;;;19.68;69.22;99062.90;108018;1307;22217;-47
2023/06/26 06:09:14;;;;;;;7.80;5.70;;;;;;;19.74;69.00;99062.80;108040;1306;22264;-44
2023/06/26 06:11:39;;;;;;;12.70;6.20;;;;;;;19.80;68.49;99060.31;108021;1306;22277;-46
2023/06/26 06:14:05;;;;;;;8.70;5.80;;;;;;;19.87;68.19;99062.09;108002;1306;23271;-51
2023/06/26 06:16:30;;;;;;;8.30;6.00;;;;;;;19.93;67.76;99061.83;107995;1307;22138;-47
2023/06/26 06:18:55;;;;;;;14.60;5.70;;;;;;;20.02;67.02;99063.37;108017;1307;22356;-50
2023/06/26 06:21:21;;;;;;;8.80;5.60;;;;;;;20.10;66.32;99058.79;108012;1306;22473;-50
2023/06/26 06:23:46;;;;;;;7.30;5.10;;;;;;;20.19;66.15;99057.41;108042;1306;22237;-47
2023/06/26 06:26:12;;;;;;;15.70;5.60;;;;;;;20.27;65.87;99060.12;108021;1306;22222;-44
2023/06/26 06:28:38;;;;;;;6.70;4.70;;;;;;;20.34;65.30;99059.79;108046;1289;22514;-52
2023/06/26 06:31:04;;;;;;;10.00;5.20;;;;;;;20.43;63.43;99060.40;108024;1307;23097;-45
2023/06/26 06:33:29;;;;;;;7.00;5.50;;;;;;;20.52;63.70;99060.14;108022;1306;22210;-50
2023/06/26 06:35:54;;;;;;;6.00;4.70;;;;;;;20.61;63.46;99059.79;108002;1307;22249;-53
2023/06/26 06:38:19;;;;;;;6.10;4.70;;;;;;;20.71;62.22;99061.62;108021;1307;22228;-52
2023/06/26 06:40:45;;;;;;;13.10;4.90;;;;;;;20.79;61.97;99063.30;108015;1306;22845;-49
2023/06/26 06:43:10;;;;;;;6.70;4.60;;;;;;;20.88;62.28;99063.65;108015;1307;22339;-50
2023/06/26 06:45:37;;;;;;;10.30;5.20;;;;;;;20.95;60.76;99057.64;108018;1306;22413;-44
2023/06/26 06:48:02;;;;;;;8.50;4.90;;;;;;;21.03;61.52;99054.96;108026;1307;22268;-44
2023/06/26 06:50:28;;;;;;;5.90;4.40;;;;;;;21.13;60.01;99057.59;108019;1306;22248;-52
2023/06/26 06:52:53;;;;;;;10.50;4.30;;;;;;;21.22;58.72;99057.85;107422;1307;22225;-50
2023/06/26 06:55:18;;;;;;;6.80;4.30;;;;;;;21.31;57.96;99057.65;108000;1305;22472;-52
2023/06/26 06:57:44;;;;;;;7.20;4.40;;;;;;;21.35;58.66;99054.97;107977;1306;22330;-45
2023/06/26 07:00:16;;;;;;;5.40;3.90;;;;;;;21.41;57.93;99055.57;107993;1305;22856;-52
2023/06/26 07:02:46;;;;;;;6.60;4.40;;;;;;;21.53;56.26;99055.45;108025;1305;22212;-54
2023/06/26 07:05:11;;;;;;;4.40;3.90;;;;;;;21.61;56.64;99053.48;107997;1302;22414;-50
2023/06/26 07:07:38;;;;;;;5.70;4.10;;;;;;;21.71;57.56;99054.27;108000;1305;22237;-49
2023/06/26 07:10:05;;;;;;;9.20;5.40;;;;;;;21.77;56.84;99052.48;108038;1306;22199;-47
2023/06/26 07:12:31;;;;;;;7.60;4.30;;;;;;;21.85;57.06;99055.27;108012;1307;22475;-50
2023/06/26 07:14:57;;;;;;;10.80;4.70;;;;;;;21.93;56.82;99054.88;108013;1307;22240;-48
2023/06/26 07:17:22;;;;;;;5.30;4.60;;;;;;;21.99;55.85;99058.60;108022;1306;22398;-48
2023/06/26 07:19:49;;;;;;;5.90;4.10;;;;;;;22.04;55.42;99053.16;108029;1306;22218;-45
2023/06/26 07:22:14;;;;;;;12.10;4.50;;;;;;;22.10;55.75;99050.83;108021;1306;22412;-56
2023/06/26 07:24:39;;;;;;;7.10;4.00;;;;;;;22.17;55.90;99047.77;108011;1306;22236;-47
2023/06/26 07:27:05;;;;;;;4.60;4.00;;;;;;;22.24;56.15;99052.20;108002;1306;22334;-45
2023/06/26 07:29:30;;;;;;;10.00;3.90;;;;;;;22.30;54.42;99050.98;108032;1306;22203;-50
2023/06/26 07:31:55;;;;;;;6.50;4.20;;;;;;;22.37;53.21;99055.08;108004;1306;23074;-48
2023/06/26 07:34:21;;;;;;;8.00;3.50;;;;;;;22.44;52.71;99055.41;108019;1306;23024;-50
2023/06/26 07:36:46;;;;;;;5.00;3.60;;;;;;;22.52;53.39;99052.20;108036;1306;22231;-53
2023/06/26 07:39:11;;;;;;;5.50;3.50;;;;;;;22.59;52.59;99049.97;108021;1306;22405;-47
2023/06/26 07:41:37;;;;;;;6.90;3.80;;;;;;;22.63;52.51;99049.02;108004;1306;22412;-52
2023/06/26 07:44:02;;;;;;;9.10;3.80;;;;;;;22.71;52.16;99050.02;108028;1306;22312;-48
2023/06/26 07:46:27;;;;;;;4.60;3.40;;;;;;;22.79;51.27;99048.49;108029;1306;22244;-46
2023/06/26 07:48:53;;;;;;;8.00;3.30;;;;;;;22.90;50.69;99052.19;108059;1306;22489;-46
2023/06/26 07:51:18;;;;;;;3.50;3.20;;;;;;;22.97;48.64;99049.34;108016;1306;23051;-45
2023/06/26 07:53:43;;;;;;;4.30;3.80;;;;;;;23.06;50.10;99046.84;108036;1306;22234;-49
2023/06/26 07:56:09;;;;;;;3.40;3.10;;;;;;;23.12;48.79;99044.95;108016;1306;22205;-46
2023/06/26 07:58:34;;;;;;;3.70;3.20;;;;;;;23.21;48.84;99045.47;108026;1306;24231;-50
2023/06/26 08:01:00;;;;;;;5.00;3.40;;;;;;;23.32;47.98;99046.82;108029;1306;22360;-51
2023/06/26 08:03:25;;;;;;;4.10;3.30;;;;;;;23.42;48.33;99046.20;108006;1306;23014;-49
2023/06/26 08:05:50;;;;;;;9.20;3.50;;;;;;;23.49;47.60;99047.93;108042;1306;22399;-53
2023/06/26 08:08:15;;;;;;;7.10;3.50;;;;;;;23.48;46.78;99049.27;108024;1306;22413;-44
2023/06/26 08:10:41;;;;;;;5.90;3.40;;;;;;;23.50;47.13;99052.33;107995;1306;24595;-53
2023/06/26 08:13:06;;;;;;;3.90;3.20;;;;;;;23.55;45.95;99047.73;108018;1306;22330;-51
2023/06/26 08:15:31;;;;;;;5.80;3.60;;;;;;;23.64;46.75;99043.48;108005;1306;22411;-52
2023/06/26 08:17:57;;;;;;;4.90;3.30;;;;;;;23.69;46.43;99040.14;108039;1306;23142;-53
2023/06/26 08:20:22;;;;;;;3.90;2.90;;;;;;;23.72;45.97;99042.83;108015;1302;22267;-51
2023/06/26 08:22:50;;;;;;;3.60;3.10;;;;;;;23.72;45.85;99040.97;108039;1306;22211;-43
2023/06/26 08:25:15;;;;;;;4.30;3.00;;;;;;;23.81;45.04;99041.00;108024;1306;22217;-50
2023/06/26 08:27:41;;;;;;;4.70;3.30;;;;;;;24.02;46.67;99034.52;108027;1306;22236;-41
2023/06/26 08:30:06;;;;;;;3.20;3.00;;;;;;;24.14;45.84;99040.45;108021;1306;23481;-37
2023/06/26 08:32:32;;;;;;;5.30;3.10;;;;;;;24.21;44.84;99039.33;108026;1306;22305;-39
2023/06/26 08:34:57;;;;;;;3.90;3.20;;;;;;;24.38;44.03;99039.84;108032;1306;22326;-38
2023/06/26 08:37:22;;;;;;;4.00;3.10;;;;;;;24.61;44.27;99042.60;108039;1306;23454;-40
2023/06/26 08:39:48;;;;;;;7.00;3.00;;;;;;;24.63;44.76;99039.12;107846;1295;22235;-40
2023/06/26 08:42:13;;;;;;;7.30;3.20;;;;;;;24.68;44.65;99036.35;107940;1301;22448;-41
2023/06/26 08:44:38;;;;;;;3.90;3.10;;;;;;;24.87;43.98;99041.09;108041;1306;23165;-39
2023/06/26 08:47:04;;;;;;;7.60;3.10;;;;;;;25.01;43.79;99030.86;107838;1301;22434;-38
2023/06/26 08:49:42;;;;;;;5.20;3.00;;;;;;;25.00;43.06;99037.42;108026;1299;22443;-41
2023/06/26 08:52:17;;;;;;;4.40;3.40;;;;;;;25.18;42.51;99030.84;107966;1302;22429;-37
2023/06/26 08:54:46;;;;;;;3.70;3.40;;;;;;;25.50;42.09;99030.02;108025;1301;22578;-39
2023/06/26 08:57:12;;;;;;;3.40;3.20;;;;;;;25.77;42.20;99025.56;108048;1301;22436;-41
2023/06/26 08:59:38;;;;;;;5.10;2.90;;;;;;;26.01;40.91;99023.11;107978;1299;23185;-41
2023/06/26 09:02:04;;;;;;;4.60;3.30;;;;;;;26.23;40.05;99021.52;107932;1301;22993;-41
2023/06/26 09:04:30;;;;;;;4.70;2.90;;;;;;;26.43;39.92;99027.49;107959;1306;22198;-40
2023/06/26 09:06:55;;;;;;;3.40;3.10;;;;;;;26.36;39.92;99029.36;107991;1299;22884;-40
2023/06/26 09:09:21;;;;;;;4.20;3.20;;;;;;;26.11;39.29;99027.22;107992;1306;23348;-38
2023/06/26 09:11:46;;;;;;;5.10;2.80;;;;;;;26.05;40.41;99020.21;107999;1299;23175;-41
2023/06/26 09:14:13;;;;;;;6.60;2.90;;;;;;;26.23;39.56;99021.21;107977;1301;22258;-40
2023/06/26 09:16:42;;;;;;;3.10;2.70;;;;;;;26.44;38.96;99021.09;108020;1301;22229;-36
2023/06/26 09:19:11;;;;;;;4.50;2.90;;;;;;;26.66;38.89;99016.76;107968;1306;22216;-43
2023/06/26 09:21:38;;;;;;;3.40;2.70;;;;;;;26.91;38.41;99016.57;107946;1302;23060;-36
2023/06/26 09:24:03;;;;;;;3.20;2.80;;;;;;;27.11;36.73;99019.61;107982;1299;22381;-45
2023/06/26 09:26:29;;;;;;;3.60;3.20;;;;;;;27.35;37.01;99016.52;107919;1301;22865;-45
2023/06/26 09:28:55;;;;;;;4.30;3.30;;;;;;;27.68;36.12;99011.85;107972;1306;22958;-44
2023/06/26 09:31:20;;;;;;;4.30;3.10;;;;;;;27.92;36.10;99009.95;107844;1301;22445;-43
2023/06/26 09:33:47;;;;;;;3.20;2.90;;;;;;;28.01;35.66;99014.77;107981;1305;23046;-42
2023/06/26 09:36:24;;;;;;;3.60;3.30;;;;;;;27.90;35.28;99009.98;107931;1306;22225;-42
2023/06/26 09:38:50;;;;;;;;;;;;;;;27.72;35.12;99007.83;108009;1306;22397;-40
2023/06/26 09:41:18;;;;;;;4.00;3.20;;;;;;;27.52;36.42;99010.50;107996;1300;23242;-42
2023/06/26 09:43:48;;;;;;;4.40;3.20;;;;;;;27.28;36.36;99011.92;107805;1301;22285;-44
2023/06/26 09:46:23;;;;;;;6.80;3.40;;;;;;;27.07;37.08;99010.16;107912;1306;22404;-41
2023/06/26 09:48:50;;;;;;;5.60;3.30;;;;;;;26.97;36.61;99006.44;107981;1299;22266;-39
2023/06/26 09:51:16;;;;;;;2.90;2.60;;;;;;;27.36;36.07;99007.99;107988;1301;22893;-40
2023/06/26 09:53:42;;;;;;;4.10;3.30;;;;;;;28.06;35.19;99007.85;107913;1285;22242;-40
2023/06/26 09:56:14;;;;;;;3.10;2.80;;;;;;;28.79;34.44;99009.23;108004;1306;22256;-43
2023/06/26 09:58:42;;;;;;;4.20;3.30;;;;;;;29.55;33.02;99002.03;107914;1306;23294;-46
2023/06/26 10:01:09;;;;;;;3.00;2.70;;;;;;;30.15;30.88;98997.84;107965;1299;22319;-44
2023/06/26 10:03:34;;;;;;;4.10;2.80;;;;;;;30.89;31.22;98996.91;107878;1299;23145;-41
2023/06/26 10:06:00;;;;;;;4.30;2.90;;;;;;;31.66;30.38;99000.35;107939;1301;23100;-44
2023/06/26 10:08:26;;;;;;;3.60;3.10;;;;;;;31.68;28.58;99001.39;107909;1306;22236;-41
2023/06/26 10:10:53;;;;;;;3.80;2.60;;;;;;;31.22;29.42;99001.91;107955;1301;22364;-43
2023/06/26 10:13:25;;;;;;;3.50;2.80;;;;;;;30.63;29.78;98999.30;107847;1306;22238;-44
2023/06/26 10:15:51;;;;;;;6.90;2.90;;;;;;;30.12;30.67;98997.32;107985;1299;22241;-40
2023/06/26 10:18:18;;;;;;;3.80;2.70;;;;;;;29.77;31.57;98998.14;108008;1302;22439;-44
2023/06/26 10:20:47;;;;;;;4.10;2.60;;;;;;;29.98;31.48;98995.20;107925;1306;22241;-41
2023/06/26 10:23:13;;;;;;;6.30;2.80;;;;;;;30.46;31.06;98992.95;107988;1301;23084;-44
2023/06/26 10:25:42;;;;;;;3.20;2.70;;;;;;;30.94;29.49;98987.23;107903;1304;22255;-44
2023/06/26 10:28:09;;;;;;;3.00;2.70;;;;;;;31.18;28.64;98982.55;107961;1306;22337;-44
2023/06/26 10:30:36;;;;;;;3.30;3.00;;;;;;;31.81;28.76;98977.80;107917;1306;22900;-40
2023/06/26 10:33:03;;;;;;;3.80;2.80;;;;;;;32.28;28.11;98982.36;107895;1306;22425;-41
2023/06/26 10:35:30;;;;;;;3.50;2.50;;;;;;;32.56;27.60;98984.36;107956;1300;22401;-42
2023/06/26 10:38:04;;;;;;;2.80;2.60;;;;;;;33.07;27.86;98982.93;107941;1305;23275;-45
2023/06/26 10:40:41;;;;;;;5.00;3.20;;;;;;;32.76;26.74;98980.60;107931;1306;23135;-42
2023/06/26 10:43:08;;;;;;;4.60;2.80;;;;;;;32.94;27.28;98978.92;107965;1301;22167;-40
2023/06/26 10:45:35;;;;;;;3.60;2.70;;;;;;;33.27;26.21;98973.45;107903;1306;22210;-40
2023/06/26 10:48:00;;;;;;;5.20;2.60;;;;;;;33.74;25.16;98971.10;107945;1306;22411;-39
2023/06/26 10:50:30;;;;;;;4.80;2.90;;;;;;;34.06;25.16;98971.60;108013;1305;22424;-38
2023/06/26 10:53:19;;;;;;;4.80;3.20;;;;;;;34.41;24.51;98968.27;107908;1306;23497;-41
2023/06/26 10:55:50;;;;;;;3.00;2.80;;;;;;;34.88;24.93;98967.50;107900;1306;22493;-45
2023/06/26 10:58:31;;;;;;;4.10;3.00;;;;;;;35.18;24.44;98965.24;107925;1306;22428;-44
2023/06/26 11:01:15;;;;;;;3.00;2.70;;;;;;;35.33;24.33;98968.39;107984;1306;22240;-42
2023/06/26 11:03:44;;;;;;;6.00;3.00;;;;;;;35.55;24.09;98968.00;107908;1306;22987;-45
2023/06/26 11:06:11;;;;;;;5.80;2.90;;;;;;;35.75;22.92;98959.04;107954;1306;22312;-42
2023/06/26 11:08:48;;;;;;;3.50;2.60;;;;;;;35.73;22.66;98956.44;107941;1306;22205;-43
2023/06/26 11:11:14;;;;;;;3.10;2.80;;;;;;;35.08;22.79;98961.81;107899;1301;23098;-45
2023/06/26 11:13:40;;;;;;;4.60;2.90;;;;;;;35.10;23.01;98960.77;107976;1303;23049;-47
2023/06/26 11:16:06;;;;;;;3.20;2.70;;;;;;;35.30;23.05;98957.11;107989;1306;23100;-45
2023/06/26 11:18:32;;;;;;;5.50;2.90;;;;;;;35.34;23.17;98951.70;107986;1300;22244;-39
2023/06/26 11:21:15;;;;;;;3.00;2.80;;;;;;;35.45;22.78;98954.70;107965;1299;22348;-39